WEATHER DATA

TODAY
Time Temp. Dewp. Hum. Wind dir Wind speed Wind gust Bar. 1h Prec. 24h Prec.
00:06 12.6 7.9 73 90 0.3 0.6 1012.8 0.0000 0.0000
00:16 12.4 7.9 74 72 0.6 0.8 1012.7 0.0000 0.0000
00:37 12.1 8 76 65 0.8 1.7 1012.5 0.0000 0.0000
00:47 12 7.9 76 90 0.3 0.8 1012.4 0.0000 0.0000
00:56 11.9 8 77 45 0.3 0.8 1012.3 0.0000 0.0000
01:06 11.8 7.9 77 90 0.3 0.8 1012.2 0.0000 0.0000
01:17 11.7 8 78 90 0.3 0.6 1012.1 0.0000 0.0000
01:27 11.6 7.9 78 63 0.6 1.4 1012 0.0000 0.0000
01:36 11.4 7.7 78 45 0.3 0.6 1011.8 0.0000 0.0000
01:47 11.2 7.5 78 45 0.3 0.6 1011.7 0.0000 0.0000
02:02 11 7.3 78 90 0.3 0.6 1011.5 0.0000 0.0000
02:12 10.8 7.1 78 58 0.6 1.4 1011.4 0.0000 0.0000
02:22 10.6 6.9 78 57 0.3 0.6 1011.3 0.0000 0.0000
02:32 10.5 7 79 39 0.3 0.6 1011.2 0.0000 0.0000
02:42 10.3 6.8 79 45 0.3 0.8 1011.2 0.0000 0.0000
02:52 10.1 6.6 79 40 0.3 0.6 1011 0.0000 0.0000
03:03 10 6.5 79 333 0.3 0.6 1010.9 0.0000 0.0000
03:12 9.9 6.6 80 18 0.3 0.6 1010.9 0.0000 0.0000
03:22 9.7 6.4 80 45 0.3 0.8 1010.7 0.0000 0.0000
03:33 9.6 6.3 80 50 0.8 1.7 1010.7 0.0000 0.0000
03:43 9.5 6.2 80 32 0.3 0.6 1010.6 0.0000 0.0000
03:53 9.4 6.3 81 33 0.3 0.6 1010.4 0.0000 0.0000
04:02 9.3 6.2 81 39 0.3 0.8 1010.3 0.0000 0.0000
04:13 9.3 6.2 81 45 0.3 0.8 1010.2 0.0000 0.0000
04:23 9.1 6 81 50 0.3 0.8 1010.1 0.0000 0.0000
04:33 8.9 5.8 81 49 0.3 0.6 1010 0.0000 0.0000
04:43 8.8 5.7 81 49 0.3 0.6 1009.9 0.0000 0.0000
04:53 8.8 5.9 82 51 0.3 1.4 1010 0.0000 0.0000
05:03 8.8 5.9 82 45 0.3 0.6 1010 0.0000 0.0000
05:13 8.8 6.1 83 90 0.3 0.6 1009.9 0.0000 0.0000
05:24 8.8 6.1 83 37 0.3 0.6 1009.8 0.0000 0.0000
05:34 8.9 6.2 83 315 0.3 0.6 1009.8 0.0000 0.0000
05:43 9 6.4 84 30 0.3 0.6 1009.8 0.0000 0.0000
05:54 9.1 6.5 84 90 0.3 0.6 1009.7 0.0000 0.0000
06:04 9.1 6.5 84 153 0.3 0.6 1009.7 0.0000 0.0000
06:14 9.3 6.7 84 54 0.3 0.6 1009.6 0.0000 0.0000
06:24 9.3 6.7 84 156 0.3 0.6 1009.6 0.0000 0.0000
06:34 9.4 6.8 84 50 0.3 0.6 1009.6 0.0000 0.0000
06:44 9.5 6.9 84 52 0.3 0.6 1009.5 0.0000 0.0000
06:54 9.7 7.3 85 45 0.3 0.6 1009.5 0.0000 0.0000
07:04 9.9 7.5 85 55 0.6 0.8 1009.5 0.0000 0.0000
07:15 10.2 7.8 85 90 0.3 0.8 1009.5 0.0000 0.0000
07:24 10.6 8.4 86 90 0.3 0.6 1009.4 0.0000 0.0000
07:34 11.3 9.2 87 39 0.3 0.6 1009.3 0.0000 0.0000
07:45 12.3 10.4 88 53 0.6 1.4 1009.3 0.0000 0.0000
07:55 13.2 11.3 88 62 0.6 1.4 1009.2 0.0000 0.0000
08:05 13.9 11.9 88 71 0.6 1.7 1009.2 0.0000 0.0000
08:15 14.4 12.3 87 53 0.8 1.9 1009.2 0.0000 0.0000
08:25 14.9 12.6 86 60 0.8 2.2 1009.1 0.0000 0.0000
08:35 15.3 12.6 84 53 0.6 1.7 1009 0.0000 0.0000
08:45 15.8 12.9 83 64 0.6 1.7 1009 0.0000 0.0000
08:56 16.2 12.7 80 61 0.6 2.2 1008.9 0.0000 0.0000
09:05 16.5 12.5 77 70 0.6 1.9 1008.8 0.0000 0.0000
09:15 16.8 12.1 74 56 0.8 2.2 1008.7 0.0000 0.0000
09:25 17.3 12 71 50 1.4 2.5 1008.7 0.0000 0.0000
09:36 17.7 11.9 69 52 0.6 1.7 1008.6 0.0000 0.0000
09:46 18 11.8 67 57 0.8 2.8 1008.6 0.0000 0.0000
09:55 18 11.6 66 74 1.7 2.8 1008.6 0.0000 0.0000
10:06 18.3 11.8 66 75 0.8 2.5 1008.5 0.0000 0.0000
10:16 18.7 12 65 83 1.4 3.1 1008.4 0.0000 0.0000
10:26 19.1 12.4 65 78 1.7 2.8 1008.4 0.0000 0.0000
10:36 19.7 12.7 64 60 1.7 3.1 1008.4 0.0000 0.0000
10:46 19.4 12.2 63 52 1.7 3.1 1008.4 0.0000 0.0000
10:56 19.4 12.4 64 66 1.7 2.5 1008.3 0.0000 0.0000
11:06 19.1 11.9 63 79 1.9 3.9 1008.3 0.0000 0.0000
11:17 19 11.6 62 67 1.4 2.8 1008.2 0.0000 0.0000
11:27 19 12 64 79 1.9 3.3 1008.1 0.0000 0.0000
11:36 19.5 12.3 63 64 1.9 5 1008.1 0.0000 0.0000
11:46 20.2 12.2 60 84 2.2 4.4 1008 0.0000 0.0000
11:57 20.3 11.8 58 77 1.7 3.9 1007.9 0.0000 0.0000
12:07 20.8 12.2 58 80 1.9 3.3 1007.8 0.0000 0.0000
12:17 20.9 12.6 59 78 1.9 3.9 1007.6 0.0000 0.0000
12:27 21.9 13.5 59 64 1.7 3.3 1007.5 0.0000 0.0000
12:37 21.5 12.9 58 83 2.2 4.4 1007.5 0.0000 0.0000
12:47 21.8 13.4 59 64 1.9 4.4 1007.5 0.0000 0.0000
12:57 21.9 13.8 60 66 1.7 3.9 1007.4 0.0000 0.0000
13:08 22.3 13.4 57 76 2.2 4.4 1007.3 0.0000 0.0000
13:18 22.5 13.6 57 74 1.7 3.9 1007.2 0.0000 0.0000
13:27 22.4 14.3 60 70 1.7 3.9 1007.1 0.0000 0.0000
13:38 21.7 13.3 59 77 2.5 5.3 1007 0.0000 0.0000
13:48 21.2 13.4 61 81 2.2 4.4 1007 0.0000 0.0000
13:58 21.1 13.3 61 78 2.8 5.8 1006.8 0.0000 0.0000
14:07 20.6 12.8 61 82 2.2 4.7 1006.8 0.0000 0.0000
14:18 20.5 13.2 63 80 2.8 6.7 1006.6 0.0000 0.0000
14:28 20.5 13 62 81 3.1 5.3 1006.5 0.0000 0.0000
14:38 20.5 12.7 61 86 2.8 6.4 1006.4 0.0000 0.0000
14:48 20.5 12.7 61 79 2.8 5.6 1006.2 0.0000 0.0000
14:58 20.8 13 61 81 3.1 5.6 1006.1 0.0000 0.0000
15:08 20.7 12.7 60 83 2.8 5.8 1005.9 0.0000 0.0000
15:18 20.9 12.9 60 82 3.3 6.9 1005.8 0.0000 0.0000
15:29 21 12.9 60 79 2.8 8.1 1005.7 0.0000 0.0000
15:39 20.9 12.9 60 85 3.1 5.8 1005.6 0.0000 0.0000
15:48 20.9 12.9 60 79 2.8 6.4 1005.4 0.0000 0.0000
15:59 21.3 13.2 60 70 2.5 7.5 1005.3 0.0000 0.0000
16:09 21.2 12.6 58 74 2.5 5.8 1005.2 0.0000 0.0000
16:19 21.2 13.1 60 76 2.2 3.9 1005.1 0.0000 0.0000
16:29 21.3 13.2 60 75 2.5 5.6 1005.1 0.0000 0.0000
16:39 21.2 13.1 60 77 3.1 6.4 1005.1 0.0000 0.0000
16:49 21.1 12.8 59 78 2.5 5 1005.1 0.0000 0.0000
16:59 20.8 12.8 60 82 2.8 5.8 1005.1 0.0000 0.0000
17:09 20.7 12.7 60 77 2.5 5.3 1005 0.0000 0.0000
17:20 20.5 12.5 60 75 2.5 5 1004.9 0.0000 0.0000
17:29 20.2 12.2 60 76 2.5 5.3 1004.8 0.0000 0.0000
17:39 19.9 12.4 62 67 2.2 6.7 1004.7 0.0000 0.0000
17:50 19.7 12.2 62 74 1.9 4.2 1004.6 0.0000 0.0000
18:00 19.6 11.9 61 69 1.9 4.4 1004.4 0.0000 0.0000

DAY STATISTIC

2020-06-03
TEMPERATURE
AVERAGE
15.6
HIGH
22.5
13:18
LOW
8.8
04:43
PRESSURE
AVERAGE
1008.6
HIGH
1012.8
00:06
LOW
1004.4
18:00
DEWPOINT
AVERAGE
10.2
HIGH
14.3
13:27
LOW
5.7
04:43
HUMIDITY
AVERAGE
72
HIGH
88
07:45
LOW
57
13:08
WIND SPEED
AVERAGE
1.3
HIGH
3.3
15:18
WIND GUST
AVERAGE
2.7
HIGH
8.1
15:29
WIND DIRECTION
PREVAILING
E
49.1%
N
0.9
NE
46.2
E
49.1
SE
1.9
S
0.0
SW
0.0
W
0.0
NW
1.9
PRECIPITATION
RAIN HOUR
0.0
RAIN DAY
0.0
TEMPERATURE (°C)
LOW
8.8
HIGH
22.5
AVERAGE
15.6
PRESSURE (hpa)
LOW
1004.4
HIGH
1012.8
AVERAGE
1008.6
DEVICE